createdAt,value
2023-05-24T00:00:43.292Z,396.00
2023-05-24T00:01:43.104Z,396.00
2023-05-24T00:02:43.367Z,399.00
2023-05-24T00:03:43.328Z,398.00
2023-05-24T00:04:43.320Z,399.00
2023-05-24T00:05:43.397Z,398.00
2023-05-24T00:06:43.425Z,399.00
2023-05-24T00:07:43.471Z,399.00
2023-05-24T00:08:43.560Z,397.00
2023-05-24T00:09:43.590Z,397.00
2023-05-24T00:10:43.902Z,398.00
2023-05-24T00:11:43.668Z,396.00
2023-05-24T00:12:43.720Z,397.00
2023-05-24T00:13:43.771Z,395.00
2023-05-24T00:14:43.837Z,395.00
2023-05-24T00:15:43.885Z,393.00
2023-05-24T00:16:43.991Z,394.00
2023-05-24T00:17:44.057Z,395.00
2023-05-24T00:18:44.048Z,397.00
2023-05-24T00:19:44.079Z,398.00
2023-05-24T00:20:44.381Z,396.00
2023-05-24T00:21:44.183Z,393.00
2023-05-24T00:22:44.247Z,392.00
2023-05-24T00:23:44.297Z,392.00
2023-05-24T00:24:44.354Z,391.00
2023-05-24T00:25:44.395Z,391.00
2023-05-24T00:26:44.467Z,390.00
2023-05-24T00:27:44.488Z,389.00
2023-05-24T00:28:44.511Z,389.00
2023-05-24T00:29:44.541Z,388.00
2023-05-24T00:30:44.762Z,388.00
2023-05-24T00:31:44.630Z,390.00
2023-05-24T00:32:44.725Z,389.00
2023-05-24T00:33:44.693Z,389.00
2023-05-24T00:34:44.716Z,388.00
2023-05-24T00:35:44.762Z,385.00
2023-05-24T00:36:44.814Z,383.00
2023-05-24T00:37:44.870Z,383.00
2023-05-24T00:38:44.907Z,382.00
2023-05-24T00:39:44.935Z,383.00
2023-05-24T00:40:44.982Z,386.00
2023-05-24T00:41:44.974Z,386.00
2023-05-24T00:42:45.023Z,388.00
2023-05-24T00:43:45.047Z,387.00
2023-05-24T00:44:45.085Z,387.00
2023-05-24T00:45:45.149Z,385.00
2023-05-24T00:46:45.141Z,385.00
2023-05-24T00:47:45.221Z,383.00
2023-05-24T00:48:45.188Z,383.00
2023-05-24T00:49:45.216Z,386.00
2023-05-24T00:50:45.223Z,382.00
2023-05-24T00:51:45.197Z,383.00
2023-05-24T00:52:45.195Z,381.00
2023-05-24T00:53:45.157Z,379.00
2023-05-24T00:54:45.144Z,377.00
2023-05-24T00:55:45.135Z,379.00
2023-05-24T00:56:45.118Z,379.00
2023-05-24T00:57:45.100Z,379.00
2023-05-24T00:58:45.103Z,380.00
2023-05-24T00:59:45.099Z,378.00
2023-05-24T01:00:45.075Z,378.00
2023-05-24T01:01:45.087Z,379.00
2023-05-24T01:02:45.180Z,378.00
2023-05-24T01:03:45.195Z,376.00
2023-05-24T01:04:45.027Z,377.00
2023-05-24T01:05:45.007Z,378.00
2023-05-24T01:06:45.055Z,378.00
2023-05-24T01:07:44.978Z,378.00
2023-05-24T01:08:44.991Z,379.00
2023-05-24T01:09:44.958Z,379.00
2023-05-24T01:10:44.996Z,378.00
2023-05-24T01:11:44.957Z,375.00
2023-05-24T01:12:44.965Z,378.00
2023-05-24T01:13:44.955Z,377.00
2023-05-24T01:14:45.004Z,376.00
2023-05-24T01:15:45.070Z,375.00
2023-05-24T01:16:45.061Z,374.00
2023-05-24T01:17:45.108Z,374.00
2023-05-24T01:18:45.099Z,376.00
2023-05-24T01:19:45.114Z,376.00
2023-05-24T01:20:45.447Z,373.00
2023-05-24T01:21:45.148Z,375.00
2023-05-24T01:22:45.199Z,373.00
2023-05-24T01:23:45.231Z,371.00
2023-05-24T01:24:45.284Z,369.00
2023-05-24T01:25:45.311Z,368.00
2023-05-24T01:26:45.332Z,367.00
2023-05-24T01:27:45.390Z,367.00
2023-05-24T01:28:45.405Z,368.00
2023-05-24T01:29:45.399Z,368.00
2023-05-24T01:30:45.455Z,368.00
2023-05-24T01:31:45.573Z,369.00
2023-05-24T01:32:45.548Z,369.00
2023-05-24T01:33:45.503Z,369.00
2023-05-24T01:34:45.570Z,369.00
2023-05-24T01:35:45.654Z,370.00
2023-05-24T01:36:45.645Z,369.00
2023-05-24T01:37:45.698Z,368.00
2023-05-24T01:38:45.720Z,366.00
2023-05-24T01:39:45.745Z,366.00
2023-05-24T01:40:45.832Z,367.00
2023-05-24T01:41:45.852Z,369.00
2023-05-24T01:42:45.863Z,369.00
2023-05-24T01:43:45.904Z,369.00
2023-05-24T01:44:45.939Z,371.00
2023-05-24T01:45:46.000Z,369.00
2023-05-24T01:46:46.077Z,369.00
2023-05-24T01:47:46.077Z,370.00
2023-05-24T01:48:46.077Z,368.00
2023-05-24T01:49:46.104Z,367.00
2023-05-24T01:50:46.144Z,367.00
2023-05-24T01:51:46.175Z,369.00
2023-05-24T01:52:46.139Z,369.00
2023-05-24T01:53:46.340Z,368.00
2023-05-24T01:54:46.232Z,367.00
2023-05-24T01:55:46.255Z,366.00
2023-05-24T01:56:46.250Z,368.00
2023-05-24T01:57:46.300Z,369.00
2023-05-24T01:58:46.292Z,368.00
2023-05-24T01:59:46.326Z,370.00
2023-05-24T02:00:46.407Z,371.00
2023-05-24T02:01:46.330Z,373.00
2023-05-24T02:02:46.439Z,374.00
2023-05-24T02:03:46.319Z,373.00
2023-05-24T02:04:46.346Z,372.00
2023-05-24T02:05:46.334Z,372.00
2023-05-24T02:06:46.331Z,370.00
2023-05-24T02:07:46.337Z,367.00
2023-05-24T02:08:46.366Z,366.00
2023-05-24T02:09:46.372Z,365.00
2023-05-24T02:10:46.366Z,368.00
2023-05-24T02:11:46.342Z,370.00
2023-05-24T02:12:46.342Z,370.00
2023-05-24T02:13:46.363Z,369.00
2023-05-24T02:14:46.370Z,368.00
2023-05-24T02:15:46.378Z,367.00
2023-05-24T02:16:46.408Z,367.00
2023-05-24T02:17:46.449Z,365.00
2023-05-24T02:18:46.430Z,363.00
2023-05-24T02:19:46.449Z,361.00
2023-05-24T02:20:46.567Z,362.00
2023-05-24T02:21:46.485Z,363.00
2023-05-24T02:22:46.468Z,361.00
2023-05-24T02:23:46.465Z,365.00
2023-05-24T02:24:46.424Z,368.00
2023-05-24T02:25:46.456Z,365.00
2023-05-24T02:26:46.404Z,359.00
2023-05-24T02:27:46.394Z,361.00
2023-05-24T02:28:46.386Z,360.00
2023-05-24T02:29:46.355Z,359.00
2023-05-24T02:30:46.374Z,359.00
2023-05-24T02:31:46.332Z,361.00
2023-05-24T02:32:46.375Z,362.00
2023-05-24T02:33:46.302Z,361.00
2023-05-24T02:34:46.281Z,361.00
2023-05-24T02:35:46.277Z,361.00
2023-05-24T02:36:46.281Z,362.00
2023-05-24T02:37:46.254Z,360.00
2023-05-24T02:38:46.275Z,359.00
2023-05-24T02:39:46.233Z,357.00
2023-05-24T02:40:46.207Z,359.00
2023-05-24T02:41:46.200Z,359.00
2023-05-24T02:42:46.199Z,363.00
2023-05-24T02:43:46.183Z,363.00
2023-05-24T02:44:46.175Z,365.00
2023-05-24T02:45:46.153Z,365.00
2023-05-24T02:46:46.210Z,363.00
2023-05-24T02:47:46.171Z,363.00
2023-05-24T02:48:46.110Z,361.00
2023-05-24T02:49:46.101Z,361.00
2023-05-24T02:50:46.094Z,361.00
2023-05-24T02:51:46.074Z,361.00
2023-05-24T02:52:46.110Z,363.00
2023-05-24T02:53:46.139Z,366.00
2023-05-24T02:54:46.144Z,367.00
2023-05-24T02:55:46.143Z,369.00
2023-05-24T02:56:46.145Z,367.00
2023-05-24T02:57:46.134Z,364.00
2023-05-24T02:58:46.131Z,364.00
2023-05-24T02:59:46.100Z,364.00
2023-05-24T03:00:46.099Z,364.00
2023-05-24T03:01:46.118Z,363.00
2023-05-24T03:02:46.136Z,363.00
2023-05-24T03:03:46.208Z,366.00
2023-05-24T03:04:46.037Z,366.00
2023-05-24T03:05:46.048Z,366.00
2023-05-24T03:06:46.023Z,365.00
2023-05-24T03:07:46.017Z,362.00
2023-05-24T03:08:46.024Z,363.00
2023-05-24T03:09:46.014Z,362.00
2023-05-24T03:10:45.986Z,364.00
2023-05-24T03:11:45.973Z,363.00
2023-05-24T03:12:45.979Z,365.00
2023-05-24T03:13:45.956Z,365.00
2023-05-24T03:14:45.938Z,365.00
2023-05-24T03:15:45.945Z,365.00
2023-05-24T03:16:46.009Z,366.00
2023-05-24T03:17:45.960Z,365.00
2023-05-24T03:18:45.917Z,364.00
2023-05-24T03:19:45.897Z,363.00
2023-05-24T03:20:45.951Z,362.00
2023-05-24T03:21:45.890Z,361.00
2023-05-24T03:22:45.866Z,362.00
2023-05-24T03:23:45.875Z,361.00
2023-05-24T03:24:45.841Z,363.00
2023-05-24T03:25:45.841Z,365.00
2023-05-24T03:26:45.828Z,364.00
2023-05-24T03:27:45.845Z,366.00
2023-05-24T03:28:45.828Z,365.00
2023-05-24T03:29:45.834Z,363.00
2023-05-24T03:30:45.809Z,362.00
2023-05-24T03:31:45.834Z,362.00
2023-05-24T03:32:45.873Z,363.00
2023-05-24T03:33:45.805Z,364.00
2023-05-24T03:34:45.786Z,365.00
2023-05-24T03:35:45.776Z,366.00
2023-05-24T03:36:45.783Z,365.00
2023-05-24T03:37:45.770Z,367.00
2023-05-24T03:38:45.801Z,368.00
2023-05-24T03:39:45.758Z,368.00
2023-05-24T03:40:45.758Z,370.00
2023-05-24T03:41:45.760Z,368.00
2023-05-24T03:42:45.738Z,366.00
2023-05-24T03:43:45.727Z,367.00
2023-05-24T03:44:45.717Z,369.00
2023-05-24T03:45:45.793Z,369.00
2023-05-24T03:46:45.693Z,367.00
2023-05-24T03:47:45.763Z,366.00
2023-05-24T03:48:45.690Z,364.00
2023-05-24T03:49:45.699Z,363.00
2023-05-24T03:50:45.752Z,363.00
2023-05-24T03:51:45.687Z,359.00
2023-05-24T03:52:45.696Z,357.00
2023-05-24T03:53:45.679Z,358.00
2023-05-24T03:54:45.672Z,359.00
2023-05-24T03:55:45.669Z,361.00
2023-05-24T03:56:45.668Z,362.00
2023-05-24T03:57:45.677Z,363.00
2023-05-24T03:58:45.647Z,363.00
2023-05-24T03:59:45.650Z,361.00
2023-05-24T04:00:45.616Z,360.00
2023-05-24T04:01:45.635Z,362.00
2023-05-24T04:02:45.676Z,363.00
2023-05-24T04:03:45.860Z,364.00
2023-05-24T04:04:45.588Z,362.00
2023-05-24T04:05:45.585Z,360.00
2023-05-24T04:06:45.585Z,360.00
2023-05-24T04:07:45.589Z,359.00
2023-05-24T04:08:45.566Z,360.00
2023-05-24T04:09:45.562Z,359.00
2023-05-24T04:10:45.630Z,359.00
2023-05-24T04:11:45.546Z,360.00
2023-05-24T04:12:45.544Z,360.00
2023-05-24T04:13:45.549Z,359.00
2023-05-24T04:14:45.504Z,358.00
2023-05-24T04:15:45.498Z,357.00
2023-05-24T04:16:45.542Z,355.00
2023-05-24T04:17:45.632Z,356.00
2023-05-24T04:18:45.615Z,358.00
2023-05-24T04:19:45.467Z,357.00
2023-05-24T04:20:45.585Z,357.00
2023-05-24T04:21:45.470Z,359.00
2023-05-24T04:22:45.443Z,359.00
2023-05-24T04:23:45.472Z,356.00
2023-05-24T04:24:45.467Z,357.00
2023-05-24T04:25:45.449Z,356.00
2023-05-24T04:26:45.444Z,357.00
2023-05-24T04:27:45.457Z,356.00
2023-05-24T04:28:45.456Z,355.00
2023-05-24T04:29:45.536Z,357.00
2023-05-24T04:30:45.480Z,359.00
2023-05-24T04:31:45.576Z,360.00
2023-05-24T04:32:45.478Z,358.00
2023-05-24T04:33:45.449Z,358.00
2023-05-24T04:34:45.464Z,357.00
2023-05-24T04:35:45.461Z,356.00
2023-05-24T04:36:45.456Z,355.00
2023-05-24T04:37:45.437Z,354.00
2023-05-24T04:38:45.412Z,355.00
2023-05-24T04:39:45.403Z,355.00
2023-05-24T04:40:45.490Z,355.00
2023-05-24T04:41:45.414Z,353.00
2023-05-24T04:42:45.378Z,355.00
2023-05-24T04:43:45.368Z,353.00
2023-05-24T04:44:45.384Z,351.00
2023-05-24T04:45:45.372Z,349.00
2023-05-24T04:46:45.368Z,349.00
2023-05-24T04:47:45.447Z,351.00
2023-05-24T04:48:45.346Z,353.00
2023-05-24T04:49:45.335Z,354.00
2023-05-24T04:50:45.327Z,354.00
2023-05-24T04:51:45.324Z,352.00
2023-05-24T04:52:45.301Z,351.00
2023-05-24T04:53:45.289Z,350.00
2023-05-24T04:54:45.275Z,347.00
2023-05-24T04:55:45.284Z,348.00
2023-05-24T04:56:45.269Z,350.00
2023-05-24T04:57:45.258Z,350.00
2023-05-24T04:58:45.255Z,352.00
2023-05-24T04:59:45.254Z,352.00
2023-05-24T05:00:45.228Z,351.00
2023-05-24T05:01:45.362Z,352.00
2023-05-24T05:02:45.316Z,354.00
2023-05-24T05:03:45.255Z,355.00
2023-05-24T05:04:45.182Z,356.00
2023-05-24T05:05:45.179Z,356.00
2023-05-24T05:06:45.183Z,357.00
2023-05-24T05:07:45.147Z,354.00
2023-05-24T05:08:45.170Z,354.00
2023-05-24T05:09:45.133Z,353.00
2023-05-24T05:10:45.146Z,353.00
2023-05-24T05:11:45.121Z,351.00
2023-05-24T05:12:45.101Z,350.00
2023-05-24T05:13:45.113Z,353.00
2023-05-24T05:14:45.094Z,352.00
2023-05-24T05:15:45.086Z,352.00
2023-05-24T05:16:45.163Z,354.00
2023-05-24T05:17:45.102Z,353.00
2023-05-24T05:18:45.068Z,352.00
2023-05-24T05:19:45.069Z,353.00
2023-05-24T05:20:45.523Z,354.00
2023-05-24T05:21:45.070Z,352.00
2023-05-24T05:22:45.030Z,352.00
2023-05-24T05:23:45.030Z,351.00
2023-05-24T05:24:45.036Z,351.00
2023-05-24T05:25:45.043Z,352.00
2023-05-24T05:26:45.038Z,351.00
2023-05-24T05:27:45.191Z,350.00
2023-05-24T05:28:45.046Z,350.00
2023-05-24T05:29:45.030Z,349.00
2023-05-24T05:30:45.042Z,349.00
2023-05-24T05:31:45.023Z,349.00
2023-05-24T05:32:45.088Z,352.00
2023-05-24T05:33:44.990Z,352.00
2023-05-24T05:34:44.972Z,354.00
2023-05-24T05:35:44.969Z,367.00
2023-05-24T05:36:44.937Z,420.00
2023-05-24T05:37:44.932Z,419.00
2023-05-24T05:38:44.928Z,443.00
2023-05-24T05:39:44.967Z,459.00
2023-05-24T05:40:44.910Z,518.00
2023-05-24T05:41:45.939Z,551.00
2023-05-24T05:42:44.890Z,590.00
2023-05-24T05:43:44.870Z,626.00
2023-05-24T05:44:44.870Z,645.00
2023-05-24T05:45:44.897Z,698.00
2023-05-24T05:46:44.868Z,704.00
2023-05-24T05:47:44.889Z,717.00
2023-05-24T05:48:46.410Z,728.00
2023-05-24T05:49:44.811Z,738.00
2023-05-24T05:50:44.814Z,798.00
2023-05-24T05:51:44.857Z,815.00
2023-05-24T05:52:44.918Z,828.00
2023-05-24T05:53:45.026Z,839.00
2023-05-24T05:54:45.080Z,844.00
2023-05-24T05:55:45.084Z,874.00
2023-05-24T05:56:45.072Z,895.00
2023-05-24T05:57:45.036Z,932.00
2023-05-24T05:58:45.052Z,945.00
2023-05-24T05:59:45.046Z,939.00
2023-05-24T06:00:45.038Z,968.00
2023-05-24T06:01:44.997Z,967.00
2023-05-24T06:02:45.071Z,958.00
2023-05-24T06:03:45.324Z,949.00
2023-05-24T06:04:45.022Z,954.00
2023-05-24T06:05:44.959Z,981.00
2023-05-24T06:06:45.035Z,994.00
2023-05-24T06:07:44.999Z,999.00
2023-05-24T06:08:45.055Z,997.00
2023-05-24T06:09:45.098Z,993.00
2023-05-24T06:10:45.218Z,988.00
2023-05-24T06:11:45.222Z,985.00
2023-05-24T06:12:45.158Z,982.00
2023-05-24T06:13:45.162Z,978.00
2023-05-24T06:14:45.197Z,969.00
2023-05-24T06:15:45.170Z,967.00
2023-05-24T06:16:45.345Z,962.00
2023-05-24T06:17:45.231Z,888.00
2023-05-24T06:18:57.047Z,788.00
2023-05-24T06:19:46.090Z,617.00
2023-05-24T06:20:45.589Z,618.00
2023-05-24T06:21:45.093Z,534.00
2023-05-24T06:22:45.241Z,550.00
2023-05-24T06:23:45.071Z,561.00
2023-05-24T06:24:45.447Z,561.00
2023-05-24T06:25:45.724Z,556.00
2023-05-24T06:26:45.156Z,546.00
2023-05-24T06:27:45.431Z,575.00
2023-05-24T06:28:45.253Z,590.00
2023-05-24T06:29:45.270Z,591.00
2023-05-24T06:30:45.529Z,595.00
2023-05-24T06:31:45.229Z,606.00
2023-05-24T06:32:45.249Z,629.00
2023-05-24T06:33:52.422Z,642.00
2023-05-24T06:34:46.219Z,660.00
2023-05-24T06:35:45.221Z,669.00
2023-05-24T06:36:45.197Z,669.00
2023-05-24T06:37:45.186Z,675.00
2023-05-24T06:38:45.172Z,618.00
2023-05-24T06:39:45.159Z,626.00
2023-05-24T06:40:45.132Z,637.00
2023-05-24T06:41:45.144Z,671.00
2023-05-24T06:42:45.105Z,685.00
2023-05-24T06:43:45.156Z,692.00
2023-05-24T06:44:45.079Z,745.00
2023-05-24T06:45:45.076Z,777.00
2023-05-24T06:46:45.057Z,841.00
2023-05-24T06:47:45.114Z,847.00
2023-05-24T06:48:45.278Z,862.00
2023-05-24T06:49:45.051Z,868.00
2023-05-24T06:50:45.127Z,876.00
2023-05-24T06:51:44.985Z,881.00
2023-05-24T06:52:44.958Z,895.00
2023-05-24T06:53:44.971Z,909.00
2023-05-24T06:54:44.967Z,918.00
2023-05-24T06:55:44.973Z,935.00
2023-05-24T06:56:44.927Z,954.00
2023-05-24T06:57:44.907Z,964.00
2023-05-24T06:58:44.880Z,978.00
2023-05-24T06:59:44.880Z,992.00
2023-05-24T07:00:45.172Z,1006.00
2023-05-24T07:01:45.191Z,1017.00
2023-05-24T07:02:44.961Z,1025.00
2023-05-24T07:03:44.928Z,1035.00
2023-05-24T07:04:44.947Z,1050.00
2023-05-24T07:05:44.916Z,1059.00
2023-05-24T07:06:44.979Z,1089.00
2023-05-24T07:07:44.951Z,1099.00
2023-05-24T07:08:44.942Z,1108.00
2023-05-24T07:09:45.028Z,1112.00
2023-05-24T07:10:45.118Z,1118.00
2023-05-24T07:11:45.031Z,1123.00
2023-05-24T07:12:44.927Z,1131.00
2023-05-24T07:13:44.907Z,1141.00
2023-05-24T07:14:44.953Z,1147.00
2023-05-24T07:15:44.877Z,1154.00
2023-05-24T07:16:44.898Z,1161.00
2023-05-24T07:17:44.895Z,1167.00
2023-05-24T07:18:44.968Z,1188.00
2023-05-24T07:19:44.794Z,1199.00
2023-05-24T07:20:45.091Z,1208.00
2023-05-24T07:21:44.780Z,1232.00
2023-05-24T07:22:44.750Z,1240.00
2023-05-24T07:23:44.709Z,1244.00
2023-05-24T07:24:44.704Z,1251.00
2023-05-24T07:25:44.695Z,1261.00
2023-05-24T07:26:44.703Z,1275.00
2023-05-24T07:27:44.659Z,1289.00
2023-05-24T07:28:44.727Z,1302.00
2023-05-24T07:29:45.784Z,1309.00
2023-05-24T07:30:44.613Z,1316.00
2023-05-24T07:31:44.663Z,1321.00
2023-05-24T07:32:44.693Z,1327.00
2023-05-24T07:33:44.524Z,1342.00
2023-05-24T07:34:44.515Z,1352.00
2023-05-24T07:35:44.493Z,1362.00
2023-05-24T07:36:44.556Z,1371.00
2023-05-24T07:37:44.641Z,1385.00
2023-05-24T07:38:44.463Z,1398.00
2023-05-24T07:39:44.453Z,1418.00
2023-05-24T07:40:44.555Z,1432.00
2023-05-24T07:41:44.404Z,1450.00
2023-05-24T07:42:44.401Z,1461.00
2023-05-24T07:43:44.372Z,1469.00
2023-05-24T07:44:44.342Z,1494.00
2023-05-24T07:45:44.476Z,1507.00
2023-05-24T07:46:44.344Z,1516.00
2023-05-24T07:47:44.363Z,1538.00
2023-05-24T07:48:44.312Z,1540.00
2023-05-24T07:49:44.274Z,1551.00
2023-05-24T07:50:44.490Z,1557.00
2023-05-24T07:51:44.309Z,1593.00
2023-05-24T07:52:44.219Z,1593.00
2023-05-24T07:53:44.238Z,1588.00
2023-05-24T07:54:44.218Z,1568.00
2023-05-24T07:55:44.363Z,1542.00
2023-05-24T07:56:44.179Z,1531.00
2023-05-24T07:57:44.155Z,1517.00
2023-05-24T07:58:44.135Z,1506.00
2023-05-24T07:59:44.125Z,1479.00
2023-05-24T08:00:44.149Z,1474.00
2023-05-24T08:01:44.126Z,1474.00
2023-05-24T08:02:44.361Z,1465.00
2023-05-24T08:03:44.292Z,1413.00
2023-05-24T08:04:44.105Z,1409.00
2023-05-24T08:05:44.379Z,1416.00
2023-05-24T08:06:44.141Z,1418.00
2023-05-24T08:07:44.128Z,1418.00
2023-05-24T08:08:44.070Z,1418.00
2023-05-24T08:09:44.086Z,1407.00
2023-05-24T08:10:44.075Z,1398.00
2023-05-24T08:11:44.067Z,1394.00
2023-05-24T08:12:44.043Z,1388.00
2023-05-24T08:13:44.026Z,1375.00
2023-05-24T08:14:44.010Z,1373.00
2023-05-24T08:15:44.187Z,1360.00
2023-05-24T08:16:44.101Z,1358.00
2023-05-24T08:17:43.989Z,1359.00
2023-05-24T08:18:43.988Z,1353.00
2023-05-24T08:19:43.936Z,1350.00
2023-05-24T08:20:44.005Z,1340.00
2023-05-24T08:21:43.900Z,1331.00
2023-05-24T08:22:43.984Z,1325.00
2023-05-24T08:23:43.870Z,1321.00
2023-05-24T08:24:43.856Z,1316.00
2023-05-24T08:25:44.055Z,1308.00
2023-05-24T08:26:44.782Z,1304.00
2023-05-24T08:27:43.830Z,1294.00
2023-05-24T08:28:43.833Z,1288.00
2023-05-24T08:29:43.799Z,1285.00
2023-05-24T08:30:43.811Z,1278.00
2023-05-24T08:31:43.870Z,1247.00
2023-05-24T08:32:43.760Z,1253.00
2023-05-24T08:33:43.712Z,1246.00
2023-05-24T08:34:43.706Z,1249.00
2023-05-24T08:35:43.955Z,1248.00
2023-05-24T08:36:43.754Z,1248.00
2023-05-24T08:37:43.759Z,1250.00
2023-05-24T08:38:43.746Z,1249.00
2023-05-24T08:39:43.754Z,1125.00
2023-05-24T08:40:43.789Z,953.00
2023-05-24T08:41:45.790Z,815.00
2023-05-24T08:42:44.780Z,792.00
2023-05-24T08:43:43.769Z,776.00
2023-05-24T08:44:43.731Z,780.00
2023-05-24T08:45:44.006Z,841.00
2023-05-24T08:46:43.769Z,963.00
2023-05-24T08:47:43.775Z,976.00
2023-05-24T08:48:43.767Z,968.00
2023-05-24T08:49:43.684Z,956.00
2023-05-24T08:50:43.753Z,947.00
2023-05-24T08:51:43.646Z,934.00
2023-05-24T08:52:43.637Z,925.00
2023-05-24T08:53:43.608Z,913.00
2023-05-24T08:54:43.618Z,904.00
2023-05-24T08:55:43.924Z,895.00
2023-05-24T08:56:43.593Z,894.00
2023-05-24T08:57:43.548Z,897.00
2023-05-24T08:58:43.539Z,888.00
2023-05-24T08:59:43.519Z,883.00
2023-05-24T09:00:43.526Z,884.00
2023-05-24T09:01:43.542Z,889.00
2023-05-24T09:02:43.518Z,891.00
2023-05-24T09:03:43.506Z,887.00
2023-05-24T09:04:43.436Z,886.00
2023-05-24T09:05:43.705Z,879.00
2023-05-24T09:06:43.430Z,874.00
2023-05-24T09:07:43.412Z,866.00
2023-05-24T09:08:44.156Z,856.00
2023-05-24T09:09:43.375Z,852.00
2023-05-24T09:10:53.946Z,847.00
2023-05-24T09:11:44.337Z,841.00
2023-05-24T09:12:43.385Z,841.00
2023-05-24T09:13:43.307Z,836.00
2023-05-24T09:14:43.295Z,829.00
2023-05-24T09:15:43.410Z,821.00
2023-05-24T09:16:43.322Z,812.00
2023-05-24T09:17:43.246Z,805.00
2023-05-24T09:18:43.265Z,802.00
2023-05-24T09:19:43.176Z,800.00
2023-05-24T09:20:43.287Z,799.00
2023-05-24T09:21:44.813Z,795.00
2023-05-24T09:22:43.151Z,787.00
2023-05-24T09:23:43.107Z,782.00
2023-05-24T09:24:43.100Z,779.00
2023-05-24T09:25:43.078Z,778.00
2023-05-24T09:26:43.061Z,775.00
2023-05-24T09:27:43.034Z,770.00
2023-05-24T09:28:43.029Z,765.00
2023-05-24T09:29:42.991Z,762.00
2023-05-24T09:30:43.144Z,757.00
2023-05-24T09:31:43.039Z,756.00
2023-05-24T09:32:43.008Z,757.00
2023-05-24T09:33:42.903Z,755.00
2023-05-24T09:34:42.908Z,753.00
2023-05-24T09:35:42.914Z,748.00
2023-05-24T09:36:42.977Z,745.00
2023-05-24T09:37:42.961Z,741.00
2023-05-24T09:38:42.978Z,733.00
2023-05-24T09:39:42.971Z,729.00
2023-05-24T09:40:43.069Z,728.00
2023-05-24T09:41:43.006Z,735.00
2023-05-24T09:42:43.136Z,846.00
2023-05-24T09:43:43.030Z,856.00
2023-05-24T09:44:43.096Z,867.00
2023-05-24T09:45:43.057Z,878.00
2023-05-24T09:46:43.169Z,948.00
2023-05-24T09:47:43.211Z,959.00
2023-05-24T09:48:43.105Z,970.00
2023-05-24T09:49:43.097Z,982.00
2023-05-24T09:50:43.415Z,1024.00
2023-05-24T09:51:43.302Z,1045.00
2023-05-24T09:52:43.167Z,1052.00
2023-05-24T09:53:43.137Z,1058.00
2023-05-24T09:54:43.102Z,1072.00
2023-05-24T09:55:43.113Z,1123.00
2023-05-24T09:56:43.106Z,1129.00
2023-05-24T09:57:43.077Z,1150.00
2023-05-24T09:58:43.071Z,1170.00
2023-05-24T09:59:43.018Z,1203.00
2023-05-24T10:00:43.618Z,1220.00
2023-05-24T10:01:43.067Z,1230.00
2023-05-24T10:02:52.232Z,1247.00
2023-05-24T10:03:44.056Z,1269.00
2023-05-24T10:04:42.946Z,1291.00
2023-05-24T10:05:42.908Z,1314.00
2023-05-24T10:06:42.864Z,1329.00
2023-05-24T10:07:42.816Z,1359.00
2023-05-24T10:08:42.790Z,1386.00
2023-05-24T10:09:42.765Z,1416.00
2023-05-24T10:10:43.008Z,1413.00
2023-05-24T10:11:42.757Z,1415.00
2023-05-24T10:12:42.783Z,1414.00
2023-05-24T10:13:42.798Z,1411.00
2023-05-24T10:14:42.942Z,1398.00
2023-05-24T10:15:42.838Z,1379.00
2023-05-24T10:16:42.856Z,1363.00
2023-05-24T10:17:42.895Z,1354.00
2023-05-24T10:18:42.859Z,1343.00
2023-05-24T10:19:42.841Z,1337.00
2023-05-24T10:20:43.302Z,1324.00
2023-05-24T10:21:42.905Z,1310.00
2023-05-24T10:22:42.851Z,1301.00
2023-05-24T10:23:42.778Z,1289.00
2023-05-24T10:24:42.767Z,1271.00
2023-05-24T10:25:42.771Z,1260.00
2023-05-24T10:26:42.756Z,1254.00
2023-05-24T10:27:42.713Z,1253.00
2023-05-24T10:28:42.728Z,1247.00
2023-05-24T10:29:42.711Z,1239.00
2023-05-24T10:30:43.126Z,1232.00
2023-05-24T10:31:42.788Z,1227.00
2023-05-24T10:32:42.653Z,1215.00
2023-05-24T10:33:42.588Z,1214.00
2023-05-24T10:34:42.576Z,1212.00
2023-05-24T10:35:42.574Z,1194.00
2023-05-24T10:36:42.540Z,1187.00
2023-05-24T10:37:42.516Z,1189.00
2023-05-24T10:38:42.874Z,1194.00
2023-05-24T10:39:42.457Z,1208.00
2023-05-24T10:40:42.460Z,1339.00
2023-05-24T10:41:42.496Z,1350.00
2023-05-24T10:42:42.410Z,1359.00
2023-05-24T10:43:42.482Z,1368.00
2023-05-24T10:44:42.389Z,1364.00
2023-05-24T10:45:42.383Z,1351.00
2023-05-24T10:46:42.508Z,1337.00
2023-05-24T10:47:42.344Z,1284.00
2023-05-24T10:48:42.290Z,1260.00
2023-05-24T10:49:42.294Z,1227.00
2023-05-24T10:50:42.679Z,1237.00
2023-05-24T10:51:42.347Z,1233.00
2023-05-24T10:52:42.251Z,1235.00
2023-05-24T10:53:42.195Z,1232.00
2023-05-24T10:54:52.483Z,1217.00
2023-05-24T10:55:43.168Z,1193.00
2023-05-24T10:56:42.156Z,1179.00
2023-05-24T10:57:42.131Z,1164.00
2023-05-24T10:58:42.111Z,1149.00
2023-05-24T10:59:42.079Z,1135.00
2023-05-24T11:00:42.073Z,1124.00
2023-05-24T11:01:42.087Z,1087.00
2023-05-24T11:02:42.097Z,1068.00
2023-05-24T11:03:42.018Z,1060.00
2023-05-24T11:04:41.991Z,1052.00
2023-05-24T11:05:43.275Z,1041.00
2023-05-24T11:06:41.949Z,1021.00
2023-05-24T11:07:41.927Z,1005.00
2023-05-24T11:08:41.900Z,1001.00
2023-05-24T11:09:41.914Z,997.00
2023-05-24T11:10:43.124Z,989.00
2023-05-24T11:11:41.837Z,976.00
2023-05-24T11:12:41.823Z,971.00
2023-05-24T11:13:41.802Z,963.00
2023-05-24T11:14:41.801Z,959.00
2023-05-24T11:15:41.830Z,952.00
2023-05-24T11:16:41.907Z,947.00
2023-05-24T11:17:43.577Z,939.00
2023-05-24T11:18:41.746Z,926.00
2023-05-24T11:19:41.715Z,917.00
2023-05-24T11:20:42.189Z,912.00
2023-05-24T11:21:41.709Z,906.00
2023-05-24T11:22:41.671Z,898.00
2023-05-24T11:23:41.655Z,884.00
2023-05-24T11:24:41.655Z,877.00
2023-05-24T11:25:41.651Z,875.00
2023-05-24T11:26:41.652Z,874.00
2023-05-24T11:27:41.626Z,869.00
2023-05-24T11:28:41.678Z,871.00
2023-05-24T11:29:41.684Z,872.00
2023-05-24T11:30:41.811Z,876.00
2023-05-24T11:31:44.055Z,875.00
2023-05-24T11:32:41.640Z,875.00
2023-05-24T11:33:41.562Z,869.00
2023-05-24T11:34:41.520Z,872.00
2023-05-24T11:35:41.528Z,868.00
2023-05-24T11:36:41.507Z,863.00
2023-05-24T11:37:46.370Z,859.00
2023-05-24T11:38:42.491Z,855.00
2023-05-24T11:39:41.466Z,849.00
2023-05-24T11:40:41.609Z,849.00
2023-05-24T11:41:41.482Z,844.00
2023-05-24T11:42:41.458Z,840.00
2023-05-24T11:43:41.421Z,835.00
2023-05-24T11:44:41.409Z,833.00
2023-05-24T11:45:41.385Z,831.00
2023-05-24T11:46:41.408Z,827.00
2023-05-24T11:47:41.370Z,826.00
2023-05-24T11:48:42.333Z,825.00
2023-05-24T11:49:41.348Z,824.00
2023-05-24T11:50:49.307Z,820.00
2023-05-24T11:51:42.443Z,820.00
2023-05-24T11:52:41.245Z,819.00
2023-05-24T11:53:41.248Z,819.00
2023-05-24T11:54:41.214Z,819.00
2023-05-24T11:55:41.356Z,816.00
2023-05-24T11:56:41.232Z,817.00
2023-05-24T11:57:41.184Z,818.00
2023-05-24T11:58:41.137Z,816.00
2023-05-24T11:59:41.129Z,814.00
2023-05-24T12:00:41.239Z,811.00
2023-05-24T12:01:41.061Z,811.00
2023-05-24T12:02:41.146Z,812.00
2023-05-24T12:03:41.166Z,810.00
2023-05-24T12:04:41.050Z,808.00
2023-05-24T12:05:40.995Z,806.00
2023-05-24T12:06:40.996Z,804.00
2023-05-24T12:07:41.002Z,802.00
2023-05-24T12:08:41.044Z,800.00
2023-05-24T12:09:40.998Z,803.00
2023-05-24T12:10:41.201Z,804.00
2023-05-24T12:11:40.964Z,805.00
2023-05-24T12:12:45.710Z,804.00
2023-05-24T12:13:41.957Z,803.00
2023-05-24T12:14:41.063Z,802.00
2023-05-24T12:15:41.010Z,804.00
2023-05-24T12:16:40.940Z,796.00
2023-05-24T12:17:40.905Z,794.00
2023-05-24T12:18:48.369Z,795.00
2023-05-24T12:19:41.841Z,794.00
2023-05-24T12:20:40.941Z,792.00
2023-05-24T12:21:40.845Z,792.00
2023-05-24T12:22:40.813Z,792.00